sensor_id;sensor_type;location;lat;lon;timestamp;P1;durP1;ratioP1;P2;durP2;ratioP2
31482;SDS011;18103;52.246;8.052;2023-05-10T00:02:17;4.63;;;3.30;;
31482;SDS011;18103;52.246;8.052;2023-05-10T00:04:45;6.30;;;3.13;;
31482;SDS011;18103;52.246;8.052;2023-05-10T00:07:10;7.53;;;3.73;;
31482;SDS011;18103;52.246;8.052;2023-05-10T00:09:36;6.60;;;3.70;;
31482;SDS011;18103;52.246;8.052;2023-05-10T00:12:01;7.13;;;4.83;;
31482;SDS011;18103;52.246;8.052;2023-05-10T00:14:26;5.30;;;3.53;;
31482;SDS011;18103;52.246;8.052;2023-05-10T00:16:52;4.60;;;3.83;;
31482;SDS011;18103;52.246;8.052;2023-05-10T00:19:17;5.80;;;3.57;;
31482;SDS011;18103;52.246;8.052;2023-05-10T00:21:47;5.80;;;3.60;;
31482;SDS011;18103;52.246;8.052;2023-05-10T00:24:13;5.53;;;3.80;;
31482;SDS011;18103;52.246;8.052;2023-05-10T00:26:38;7.67;;;4.57;;
31482;SDS011;18103;52.246;8.052;2023-05-10T00:29:07;4.73;;;4.20;;
31482;SDS011;18103;52.246;8.052;2023-05-10T00:31:32;5.77;;;3.83;;
31482;SDS011;18103;52.246;8.052;2023-05-10T00:33:58;4.80;;;3.47;;
31482;SDS011;18103;52.246;8.052;2023-05-10T00:36:28;4.40;;;3.07;;
31482;SDS011;18103;52.246;8.052;2023-05-10T00:38:54;4.47;;;3.30;;
31482;SDS011;18103;52.246;8.052;2023-05-10T00:41:19;4.37;;;3.53;;
31482;SDS011;18103;52.246;8.052;2023-05-10T00:43:47;6.90;;;3.43;;
31482;SDS011;18103;52.246;8.052;2023-05-10T00:46:17;4.63;;;3.43;;
31482;SDS011;18103;52.246;8.052;2023-05-10T00:48:46;4.90;;;3.43;;
31482;SDS011;18103;52.246;8.052;2023-05-10T00:51:12;4.53;;;3.43;;
31482;SDS011;18103;52.246;8.052;2023-05-10T00:53:40;4.60;;;3.57;;
31482;SDS011;18103;52.246;8.052;2023-05-10T00:56:06;5.73;;;4.13;;
31482;SDS011;18103;52.246;8.052;2023-05-10T00:58:31;6.77;;;4.40;;
31482;SDS011;18103;52.246;8.052;2023-05-10T01:00:59;6.40;;;3.90;;
31482;SDS011;18103;52.246;8.052;2023-05-10T01:03:26;8.53;;;3.97;;
31482;SDS011;18103;52.246;8.052;2023-05-10T01:05:51;5.87;;;4.03;;
31482;SDS011;18103;52.246;8.052;2023-05-10T01:08:20;6.40;;;4.43;;
31482;SDS011;18103;52.246;8.052;2023-05-10T01:10:48;6.23;;;4.13;;
31482;SDS011;18103;52.246;8.052;2023-05-10T01:13:18;5.70;;;3.93;;
31482;SDS011;18103;52.246;8.052;2023-05-10T01:15:52;6.03;;;4.03;;
31482;SDS011;18103;52.246;8.052;2023-05-10T01:18:19;7.03;;;4.40;;
31482;SDS011;18103;52.246;8.052;2023-05-10T01:20:47;7.27;;;4.53;;
31482;SDS011;18103;52.246;8.052;2023-05-10T01:23:27;7.77;;;4.33;;
31482;SDS011;18103;52.246;8.052;2023-05-10T01:33:56;7.17;;;4.43;;
31482;SDS011;18103;52.246;8.052;2023-05-10T01:36:36;8.13;;;4.50;;
31482;SDS011;18103;52.246;8.052;2023-05-10T01:44:24;10.57;;;4.63;;
31482;SDS011;18103;52.246;8.052;2023-05-10T01:46:53;8.10;;;5.13;;
31482;SDS011;18103;52.246;8.052;2023-05-10T01:49:26;7.33;;;4.80;;
31482;SDS011;18103;52.246;8.052;2023-05-10T01:51:57;7.77;;;4.57;;
31482;SDS011;18103;52.246;8.052;2023-05-10T01:54:28;7.10;;;4.63;;
31482;SDS011;18103;52.246;8.052;2023-05-10T01:57:03;6.30;;;4.60;;
31482;SDS011;18103;52.246;8.052;2023-05-10T01:59:34;5.63;;;3.77;;
31482;SDS011;18103;52.246;8.052;2023-05-10T02:02:04;6.27;;;3.77;;
31482;SDS011;18103;52.246;8.052;2023-05-10T02:04:36;7.47;;;4.83;;
31482;SDS011;18103;52.246;8.052;2023-05-10T02:07:04;5.80;;;4.23;;
31482;SDS011;18103;52.246;8.052;2023-05-10T02:09:32;5.97;;;4.73;;
31482;SDS011;18103;52.246;8.052;2023-05-10T02:11:59;6.07;;;3.80;;
31482;SDS011;18103;52.246;8.052;2023-05-10T02:14:34;11.73;;;4.90;;
31482;SDS011;18103;52.246;8.052;2023-05-10T02:17:02;7.17;;;4.30;;
31482;SDS011;18103;52.246;8.052;2023-05-10T02:19:30;6.07;;;4.47;;
31482;SDS011;18103;52.246;8.052;2023-05-10T02:21:59;5.87;;;4.30;;
31482;SDS011;18103;52.246;8.052;2023-05-10T02:24:27;4.90;;;3.67;;
31482;SDS011;18103;52.246;8.052;2023-05-10T02:26:54;3.70;;;3.00;;
31482;SDS011;18103;52.246;8.052;2023-05-10T02:29:21;6.43;;;3.37;;
31482;SDS011;18103;52.246;8.052;2023-05-10T02:31:50;5.53;;;3.63;;
31482;SDS011;18103;52.246;8.052;2023-05-10T02:34:20;5.07;;;3.40;;
31482;SDS011;18103;52.246;8.052;2023-05-10T02:36:49;4.53;;;3.10;;
31482;SDS011;18103;52.246;8.052;2023-05-10T02:39:15;4.20;;;3.07;;
31482;SDS011;18103;52.246;8.052;2023-05-10T02:41:44;4.70;;;3.20;;
31482;SDS011;18103;52.246;8.052;2023-05-10T02:44:14;4.77;;;2.60;;
31482;SDS011;18103;52.246;8.052;2023-05-10T02:46:42;4.43;;;3.13;;
31482;SDS011;18103;52.246;8.052;2023-05-10T02:49:08;3.60;;;2.57;;
31482;SDS011;18103;52.246;8.052;2023-05-10T02:51:40;7.10;;;2.57;;
31482;SDS011;18103;52.246;8.052;2023-05-10T02:54:15;4.00;;;3.20;;
31482;SDS011;18103;52.246;8.052;2023-05-10T02:56:50;9.57;;;3.27;;
31482;SDS011;18103;52.246;8.052;2023-05-10T02:59:21;7.60;;;2.57;;
31482;SDS011;18103;52.246;8.052;2023-05-10T03:01:47;3.27;;;1.80;;
31482;SDS011;18103;52.246;8.052;2023-05-10T03:04:12;6.23;;;1.20;;
31482;SDS011;18103;52.246;8.052;2023-05-10T03:06:38;2.10;;;0.63;;
31482;SDS011;18103;52.246;8.052;2023-05-10T03:09:04;0.50;;;0.50;;
31482;SDS011;18103;52.246;8.052;2023-05-10T03:14:21;1.00;;;0.80;;
31482;SDS011;18103;52.246;8.052;2023-05-10T03:16:52;1.37;;;0.90;;
31482;SDS011;18103;52.246;8.052;2023-05-10T03:22:10;1.40;;;1.17;;
31482;SDS011;18103;52.246;8.052;2023-05-10T03:24:45;2.07;;;1.30;;
31482;SDS011;18103;52.246;8.052;2023-05-10T03:27:12;2.30;;;1.60;;
31482;SDS011;18103;52.246;8.052;2023-05-10T03:29:42;1.57;;;1.47;;
31482;SDS011;18103;52.246;8.052;2023-05-10T03:32:09;3.03;;;1.83;;
31482;SDS011;18103;52.246;8.052;2023-05-10T03:34:34;3.53;;;1.80;;
31482;SDS011;18103;52.246;8.052;2023-05-10T03:37:09;3.90;;;1.47;;
31482;SDS011;18103;52.246;8.052;2023-05-10T03:39:34;2.10;;;1.67;;
31482;SDS011;18103;52.246;8.052;2023-05-10T03:42:05;2.50;;;1.43;;
31482;SDS011;18103;52.246;8.052;2023-05-10T03:44:30;3.43;;;1.80;;
31482;SDS011;18103;52.246;8.052;2023-05-10T03:46:58;5.33;;;1.70;;
31482;SDS011;18103;52.246;8.052;2023-05-10T03:49:23;2.00;;;1.73;;
31482;SDS011;18103;52.246;8.052;2023-05-10T03:51:51;2.37;;;1.60;;
31482;SDS011;18103;52.246;8.052;2023-05-10T03:54:16;2.37;;;1.63;;
31482;SDS011;18103;52.246;8.052;2023-05-10T03:56:42;6.00;;;2.23;;
31482;SDS011;18103;52.246;8.052;2023-05-10T03:59:12;5.63;;;2.03;;
31482;SDS011;18103;52.246;8.052;2023-05-10T04:01:40;6.93;;;2.27;;
31482;SDS011;18103;52.246;8.052;2023-05-10T04:04:05;2.90;;;2.60;;
31482;SDS011;18103;52.246;8.052;2023-05-10T04:06:30;3.83;;;2.80;;
31482;SDS011;18103;52.246;8.052;2023-05-10T04:08:58;4.87;;;2.80;;
31482;SDS011;18103;52.246;8.052;2023-05-10T04:11:25;3.50;;;2.60;;
31482;SDS011;18103;52.246;8.052;2023-05-10T04:13:53;3.67;;;2.80;;
31482;SDS011;18103;52.246;8.052;2023-05-10T04:16:21;5.20;;;3.10;;
31482;SDS011;18103;52.246;8.052;2023-05-10T04:18:49;4.20;;;2.87;;
31482;SDS011;18103;52.246;8.052;2023-05-10T04:21:14;3.77;;;2.73;;
31482;SDS011;18103;52.246;8.052;2023-05-10T04:23:40;5.93;;;3.30;;
31482;SDS011;18103;52.246;8.052;2023-05-10T04:26:08;4.10;;;2.77;;
31482;SDS011;18103;52.246;8.052;2023-05-10T04:28:33;4.50;;;3.00;;
31482;SDS011;18103;52.246;8.052;2023-05-10T04:31:10;6.37;;;3.57;;
31482;SDS011;18103;52.246;8.052;2023-05-10T04:33:35;7.20;;;3.23;;
31482;SDS011;18103;52.246;8.052;2023-05-10T04:36:01;5.57;;;3.10;;
31482;SDS011;18103;52.246;8.052;2023-05-10T04:38:27;6.63;;;3.20;;
31482;SDS011;18103;52.246;8.052;2023-05-10T04:41:06;3.50;;;2.30;;
31482;SDS011;18103;52.246;8.052;2023-05-10T04:43:38;3.00;;;2.10;;
31482;SDS011;18103;52.246;8.052;2023-05-10T04:46:06;6.07;;;2.87;;
31482;SDS011;18103;52.246;8.052;2023-05-10T04:48:32;5.43;;;2.50;;
31482;SDS011;18103;52.246;8.052;2023-05-10T04:50:58;6.90;;;3.00;;
31482;SDS011;18103;52.246;8.052;2023-05-10T04:53:23;7.17;;;3.33;;
31482;SDS011;18103;52.246;8.052;2023-05-10T04:55:51;5.27;;;3.70;;
31482;SDS011;18103;52.246;8.052;2023-05-10T04:58:17;4.53;;;3.43;;
31482;SDS011;18103;52.246;8.052;2023-05-10T05:00:42;9.10;;;4.17;;
31482;SDS011;18103;52.246;8.052;2023-05-10T05:03:07;7.60;;;3.90;;
31482;SDS011;18103;52.246;8.052;2023-05-10T05:05:33;7.33;;;4.10;;
31482;SDS011;18103;52.246;8.052;2023-05-10T05:07:58;5.80;;;3.80;;
31482;SDS011;18103;52.246;8.052;2023-05-10T05:10:28;6.80;;;4.33;;
31482;SDS011;18103;52.246;8.052;2023-05-10T05:12:56;5.57;;;4.10;;
31482;SDS011;18103;52.246;8.052;2023-05-10T05:15:26;6.87;;;3.93;;
31482;SDS011;18103;52.246;8.052;2023-05-10T05:17:52;10.97;;;4.13;;
31482;SDS011;18103;52.246;8.052;2023-05-10T05:20:17;7.53;;;4.20;;
31482;SDS011;18103;52.246;8.052;2023-05-10T05:22:43;5.57;;;3.90;;
31482;SDS011;18103;52.246;8.052;2023-05-10T05:25:09;5.27;;;4.10;;
31482;SDS011;18103;52.246;8.052;2023-05-10T05:27:35;5.17;;;3.80;;
31482;SDS011;18103;52.246;8.052;2023-05-10T05:30:00;7.37;;;3.50;;
31482;SDS011;18103;52.246;8.052;2023-05-10T05:32:25;6.47;;;3.87;;
31482;SDS011;18103;52.246;8.052;2023-05-10T05:34:51;7.17;;;3.87;;
31482;SDS011;18103;52.246;8.052;2023-05-10T05:37:17;3.67;;;2.70;;
31482;SDS011;18103;52.246;8.052;2023-05-10T05:39:44;5.03;;;3.07;;
31482;SDS011;18103;52.246;8.052;2023-05-10T05:42:11;5.17;;;3.47;;
31482;SDS011;18103;52.246;8.052;2023-05-10T05:44:36;4.60;;;2.73;;
31482;SDS011;18103;52.246;8.052;2023-05-10T05:47:07;8.30;;;3.10;;
31482;SDS011;18103;52.246;8.052;2023-05-10T05:49:33;3.17;;;2.67;;
31482;SDS011;18103;52.246;8.052;2023-05-10T05:52:01;4.43;;;3.03;;
31482;SDS011;18103;52.246;8.052;2023-05-10T05:54:27;3.20;;;2.37;;
31482;SDS011;18103;52.246;8.052;2023-05-10T05:56:58;3.37;;;2.33;;
31482;SDS011;18103;52.246;8.052;2023-05-10T05:59:27;4.53;;;2.80;;
31482;SDS011;18103;52.246;8.052;2023-05-10T06:01:52;5.73;;;2.90;;
31482;SDS011;18103;52.246;8.052;2023-05-10T06:04:18;4.93;;;2.57;;
31482;SDS011;18103;52.246;8.052;2023-05-10T06:06:44;5.83;;;2.63;;
31482;SDS011;18103;52.246;8.052;2023-05-10T06:09:12;4.67;;;2.47;;
31482;SDS011;18103;52.246;8.052;2023-05-10T06:11:37;4.00;;;2.60;;
31482;SDS011;18103;52.246;8.052;2023-05-10T06:14:05;4.27;;;2.10;;
31482;SDS011;18103;52.246;8.052;2023-05-10T06:16:32;5.13;;;3.30;;
31482;SDS011;18103;52.246;8.052;2023-05-10T06:18:57;7.63;;;2.97;;
31482;SDS011;18103;52.246;8.052;2023-05-10T06:21:23;4.43;;;3.10;;
31482;SDS011;18103;52.246;8.052;2023-05-10T06:23:48;4.90;;;3.23;;
31482;SDS011;18103;52.246;8.052;2023-05-10T06:26:13;8.97;;;3.27;;
31482;SDS011;18103;52.246;8.052;2023-05-10T06:28:39;4.80;;;3.07;;
31482;SDS011;18103;52.246;8.052;2023-05-10T06:31:07;4.83;;;3.50;;
31482;SDS011;18103;52.246;8.052;2023-05-10T06:33:33;6.90;;;3.30;;
31482;SDS011;18103;52.246;8.052;2023-05-10T06:35:58;7.20;;;3.57;;
31482;SDS011;18103;52.246;8.052;2023-05-10T06:38:29;7.43;;;4.33;;
31482;SDS011;18103;52.246;8.052;2023-05-10T06:40:54;7.17;;;3.83;;
31482;SDS011;18103;52.246;8.052;2023-05-10T06:43:23;9.50;;;4.43;;
31482;SDS011;18103;52.246;8.052;2023-05-10T06:45:49;7.13;;;4.50;;
31482;SDS011;18103;52.246;8.052;2023-05-10T06:48:15;5.70;;;4.07;;
31482;SDS011;18103;52.246;8.052;2023-05-10T06:50:42;8.13;;;4.37;;
31482;SDS011;18103;52.246;8.052;2023-05-10T06:53:08;8.93;;;4.20;;
31482;SDS011;18103;52.246;8.052;2023-05-10T06:55:38;7.13;;;3.90;;
31482;SDS011;18103;52.246;8.052;2023-05-10T06:58:06;10.70;;;4.50;;
31482;SDS011;18103;52.246;8.052;2023-05-10T07:00:31;6.60;;;4.60;;
31482;SDS011;18103;52.246;8.052;2023-05-10T07:02:57;7.77;;;4.50;;
31482;SDS011;18103;52.246;8.052;2023-05-10T07:05:25;9.17;;;5.50;;
31482;SDS011;18103;52.246;8.052;2023-05-10T07:07:52;10.10;;;5.37;;
31482;SDS011;18103;52.246;8.052;2023-05-10T07:10:18;10.40;;;5.67;;
31482;SDS011;18103;52.246;8.052;2023-05-10T07:12:43;13.07;;;6.57;;
31482;SDS011;18103;52.246;8.052;2023-05-10T07:15:11;14.43;;;7.10;;
31482;SDS011;18103;52.246;8.052;2023-05-10T07:17:39;15.00;;;7.37;;
31482;SDS011;18103;52.246;8.052;2023-05-10T07:20:04;18.47;;;8.07;;
31482;SDS011;18103;52.246;8.052;2023-05-10T07:22:30;15.90;;;7.70;;
31482;SDS011;18103;52.246;8.052;2023-05-10T07:24:56;16.73;;;8.13;;
31482;SDS011;18103;52.246;8.052;2023-05-10T07:27:25;18.20;;;8.67;;
31482;SDS011;18103;52.246;8.052;2023-05-10T07:29:52;22.13;;;9.60;;
31482;SDS011;18103;52.246;8.052;2023-05-10T07:32:18;26.20;;;10.83;;
31482;SDS011;18103;52.246;8.052;2023-05-10T07:34:43;23.43;;;9.63;;
31482;SDS011;18103;52.246;8.052;2023-05-10T07:37:08;27.80;;;10.30;;
31482;SDS011;18103;52.246;8.052;2023-05-10T07:39:34;22.00;;;10.00;;
31482;SDS011;18103;52.246;8.052;2023-05-10T07:41:59;23.10;;;10.20;;
31482;SDS011;18103;52.246;8.052;2023-05-10T07:44:24;22.80;;;11.33;;
31482;SDS011;18103;52.246;8.052;2023-05-10T07:46:50;26.23;;;10.87;;
31482;SDS011;18103;52.246;8.052;2023-05-10T07:49:17;19.63;;;9.70;;
31482;SDS011;18103;52.246;8.052;2023-05-10T07:51:45;21.70;;;9.17;;
31482;SDS011;18103;52.246;8.052;2023-05-10T07:54:10;18.83;;;9.53;;
31482;SDS011;18103;52.246;8.052;2023-05-10T07:56:36;21.47;;;10.00;;
31482;SDS011;18103;52.246;8.052;2023-05-10T07:59:02;21.27;;;9.23;;
31482;SDS011;18103;52.246;8.052;2023-05-10T08:01:32;21.93;;;9.57;;
31482;SDS011;18103;52.246;8.052;2023-05-10T08:03:58;20.73;;;8.77;;
31482;SDS011;18103;52.246;8.052;2023-05-10T08:06:26;21.57;;;9.93;;
31482;SDS011;18103;52.246;8.052;2023-05-10T08:08:55;25.60;;;10.53;;
31482;SDS011;18103;52.246;8.052;2023-05-10T08:11:28;24.57;;;10.43;;
31482;SDS011;18103;52.246;8.052;2023-05-10T08:13:53;26.50;;;10.57;;
31482;SDS011;18103;52.246;8.052;2023-05-10T08:16:21;22.63;;;10.80;;
31482;SDS011;18103;52.246;8.052;2023-05-10T08:18:46;22.77;;;10.50;;
31482;SDS011;18103;52.246;8.052;2023-05-10T08:21:15;23.33;;;10.90;;
31482;SDS011;18103;52.246;8.052;2023-05-10T08:23:41;27.63;;;10.87;;
31482;SDS011;18103;52.246;8.052;2023-05-10T08:26:08;33.00;;;11.87;;
31482;SDS011;18103;52.246;8.052;2023-05-10T08:28:38;29.50;;;12.73;;
31482;SDS011;18103;52.246;8.052;2023-05-10T08:31:04;32.33;;;11.77;;
31482;SDS011;18103;52.246;8.052;2023-05-10T08:33:30;29.73;;;12.60;;
31482;SDS011;18103;52.246;8.052;2023-05-10T08:35:55;33.43;;;13.23;;
31482;SDS011;18103;52.246;8.052;2023-05-10T08:38:21;36.97;;;13.20;;
31482;SDS011;18103;52.246;8.052;2023-05-10T08:40:51;34.00;;;12.63;;
31482;SDS011;18103;52.246;8.052;2023-05-10T08:43:21;33.03;;;12.93;;
31482;SDS011;18103;52.246;8.052;2023-05-10T08:45:51;30.60;;;14.03;;
31482;SDS011;18103;52.246;8.052;2023-05-10T08:48:19;35.83;;;13.40;;
31482;SDS011;18103;52.246;8.052;2023-05-10T08:50:47;31.20;;;12.67;;
31482;SDS011;18103;52.246;8.052;2023-05-10T08:53:18;32.30;;;12.87;;
31482;SDS011;18103;52.246;8.052;2023-05-10T08:55:47;33.17;;;11.87;;
31482;SDS011;18103;52.246;8.052;2023-05-10T08:58:14;32.43;;;13.10;;
31482;SDS011;18103;52.246;8.052;2023-05-10T09:00:44;32.67;;;12.97;;
31482;SDS011;18103;52.246;8.052;2023-05-10T09:03:10;31.93;;;13.37;;
31482;SDS011;18103;52.246;8.052;2023-05-10T09:16:13;27.47;;;12.87;;
31482;SDS011;18103;52.246;8.052;2023-05-10T09:18:39;25.60;;;11.30;;
31482;SDS011;18103;52.246;8.052;2023-05-10T09:21:05;30.33;;;11.70;;
31482;SDS011;18103;52.246;8.052;2023-05-10T09:23:30;22.70;;;11.40;;
31482;SDS011;18103;52.246;8.052;2023-05-10T09:26:03;30.20;;;11.60;;
31482;SDS011;18103;52.246;8.052;2023-05-10T09:28:33;21.73;;;11.00;;
31482;SDS011;18103;52.246;8.052;2023-05-10T09:30:59;26.77;;;11.97;;
31482;SDS011;18103;52.246;8.052;2023-05-10T09:33:25;27.77;;;11.07;;
31482;SDS011;18103;52.246;8.052;2023-05-10T09:35:51;31.10;;;12.90;;
31482;SDS011;18103;52.246;8.052;2023-05-10T09:38:20;21.83;;;10.40;;
31482;SDS011;18103;52.246;8.052;2023-05-10T09:40:50;30.20;;;11.33;;
31482;SDS011;18103;52.246;8.052;2023-05-10T09:43:19;28.07;;;11.90;;
31482;SDS011;18103;52.246;8.052;2023-05-10T09:45:45;28.83;;;11.93;;
31482;SDS011;18103;52.246;8.052;2023-05-10T09:48:15;31.57;;;12.73;;
31482;SDS011;18103;52.246;8.052;2023-05-10T09:50:40;27.30;;;12.63;;
31482;SDS011;18103;52.246;8.052;2023-05-10T09:53:06;29.07;;;12.60;;
31482;SDS011;18103;52.246;8.052;2023-05-10T09:58:02;23.43;;;11.17;;
31482;SDS011;18103;52.246;8.052;2023-05-10T10:00:34;28.37;;;11.40;;
31482;SDS011;18103;52.246;8.052;2023-05-10T10:03:07;34.67;;;11.60;;
31482;SDS011;18103;52.246;8.052;2023-05-10T10:05:39;24.97;;;11.60;;
31482;SDS011;18103;52.246;8.052;2023-05-10T10:08:06;22.53;;;10.50;;
31482;SDS011;18103;52.246;8.052;2023-05-10T10:10:32;28.57;;;11.23;;
31482;SDS011;18103;52.246;8.052;2023-05-10T10:13:01;33.93;;;12.97;;
31482;SDS011;18103;52.246;8.052;2023-05-10T10:15:26;28.10;;;12.33;;
31482;SDS011;18103;52.246;8.052;2023-05-10T10:17:52;26.70;;;11.80;;
31482;SDS011;18103;52.246;8.052;2023-05-10T10:20:21;27.50;;;11.40;;
31482;SDS011;18103;52.246;8.052;2023-05-10T10:22:47;29.57;;;11.93;;
31482;SDS011;18103;52.246;8.052;2023-05-10T10:25:16;32.03;;;11.60;;
31482;SDS011;18103;52.246;8.052;2023-05-10T10:30:29;21.67;;;11.53;;
31482;SDS011;18103;52.246;8.052;2023-05-10T10:35:30;24.53;;;11.17;;
31482;SDS011;18103;52.246;8.052;2023-05-10T10:37:56;24.90;;;10.30;;
31482;SDS011;18103;52.246;8.052;2023-05-10T10:40:29;22.10;;;8.73;;
31482;SDS011;18103;52.246;8.052;2023-05-10T10:42:56;20.80;;;9.30;;
31482;SDS011;18103;52.246;8.052;2023-05-10T10:45:42;19.27;;;8.83;;
31482;SDS011;18103;52.246;8.052;2023-05-10T10:48:20;27.90;;;10.47;;
31482;SDS011;18103;52.246;8.052;2023-05-10T10:50:55;21.60;;;9.70;;
31482;SDS011;18103;52.246;8.052;2023-05-10T10:53:21;20.27;;;9.57;;
31482;SDS011;18103;52.246;8.052;2023-05-10T10:55:46;23.17;;;9.20;;
31482;SDS011;18103;52.246;8.052;2023-05-10T10:58:33;26.60;;;9.33;;
31482;SDS011;18103;52.246;8.052;2023-05-10T11:03:37;24.50;;;8.87;;
31482;SDS011;18103;52.246;8.052;2023-05-10T11:06:05;22.43;;;8.90;;
31482;SDS011;18103;52.246;8.052;2023-05-10T11:08:32;22.07;;;10.07;;
31482;SDS011;18103;52.246;8.052;2023-05-10T11:15:54;23.30;;;9.37;;
31482;SDS011;18103;52.246;8.052;2023-05-10T11:18:28;17.30;;;9.23;;
31482;SDS011;18103;52.246;8.052;2023-05-10T11:20:58;19.60;;;8.30;;
31482;SDS011;18103;52.246;8.052;2023-05-10T11:23:51;17.63;;;8.63;;
31482;SDS011;18103;52.246;8.052;2023-05-10T11:26:17;19.37;;;8.60;;
31482;SDS011;18103;52.246;8.052;2023-05-10T11:28:43;21.80;;;8.87;;
31482;SDS011;18103;52.246;8.052;2023-05-10T11:31:10;22.90;;;8.93;;
31482;SDS011;18103;52.246;8.052;2023-05-10T11:33:44;17.03;;;8.33;;
31482;SDS011;18103;52.246;8.052;2023-05-10T11:36:11;20.40;;;9.10;;
31482;SDS011;18103;52.246;8.052;2023-05-10T11:38:44;21.73;;;7.83;;
31482;SDS011;18103;52.246;8.052;2023-05-10T11:41:13;23.03;;;8.80;;
31482;SDS011;18103;52.246;8.052;2023-05-10T11:43:42;15.43;;;8.37;;
31482;SDS011;18103;52.246;8.052;2023-05-10T11:46:09;21.60;;;8.00;;
31482;SDS011;18103;52.246;8.052;2023-05-10T11:48:38;17.53;;;8.13;;
31482;SDS011;18103;52.246;8.052;2023-05-10T11:51:05;10.80;;;6.53;;
31482;SDS011;18103;52.246;8.052;2023-05-10T11:53:32;17.17;;;7.07;;
31482;SDS011;18103;52.246;8.052;2023-05-10T11:56:08;17.27;;;6.80;;
31482;SDS011;18103;52.246;8.052;2023-05-10T11:58:35;16.07;;;5.57;;
31482;SDS011;18103;52.246;8.052;2023-05-10T12:01:01;16.67;;;6.47;;
31482;SDS011;18103;52.246;8.052;2023-05-10T12:03:30;16.27;;;7.30;;
31482;SDS011;18103;52.246;8.052;2023-05-10T12:06:00;12.53;;;6.63;;
31482;SDS011;18103;52.246;8.052;2023-05-10T12:08:29;13.67;;;6.50;;
31482;SDS011;18103;52.246;8.052;2023-05-10T12:11:05;11.37;;;6.00;;
31482;SDS011;18103;52.246;8.052;2023-05-10T12:13:32;15.00;;;6.50;;
31482;SDS011;18103;52.246;8.052;2023-05-10T12:16:12;13.10;;;5.60;;
31482;SDS011;18103;52.246;8.052;2023-05-10T12:18:51;14.10;;;7.23;;
31482;SDS011;18103;52.246;8.052;2023-05-10T12:21:20;14.97;;;7.40;;
31482;SDS011;18103;52.246;8.052;2023-05-10T12:23:46;15.50;;;6.80;;
31482;SDS011;18103;52.246;8.052;2023-05-10T12:26:17;18.07;;;8.47;;
31482;SDS011;18103;52.246;8.052;2023-05-10T12:28:42;16.60;;;7.47;;
31482;SDS011;18103;52.246;8.052;2023-05-10T12:31:08;12.40;;;6.90;;
31482;SDS011;18103;52.246;8.052;2023-05-10T12:33:41;14.93;;;7.23;;
31482;SDS011;18103;52.246;8.052;2023-05-10T12:36:12;18.07;;;6.90;;
31482;SDS011;18103;52.246;8.052;2023-05-10T12:38:42;15.50;;;7.70;;
31482;SDS011;18103;52.246;8.052;2023-05-10T12:41:09;16.97;;;7.57;;
31482;SDS011;18103;52.246;8.052;2023-05-10T12:43:36;18.50;;;7.53;;
31482;SDS011;18103;52.246;8.052;2023-05-10T12:46:09;17.20;;;8.27;;
31482;SDS011;18103;52.246;8.052;2023-05-10T12:48:41;15.47;;;6.77;;
31482;SDS011;18103;52.246;8.052;2023-05-10T12:51:17;14.77;;;6.73;;
31482;SDS011;18103;52.246;8.052;2023-05-10T12:53:44;17.47;;;6.80;;
31482;SDS011;18103;52.246;8.052;2023-05-10T12:56:15;19.37;;;6.63;;
31482;SDS011;18103;52.246;8.052;2023-05-10T12:58:40;18.10;;;6.30;;
31482;SDS011;18103;52.246;8.052;2023-05-10T13:01:12;14.93;;;7.07;;
31482;SDS011;18103;52.246;8.052;2023-05-10T13:03:40;15.47;;;8.17;;
31482;SDS011;18103;52.246;8.052;2023-05-10T13:06:07;18.27;;;7.77;;
31482;SDS011;18103;52.246;8.052;2023-05-10T13:08:35;18.20;;;7.73;;
31482;SDS011;18103;52.246;8.052;2023-05-10T13:11:03;12.80;;;6.90;;
31482;SDS011;18103;52.246;8.052;2023-05-10T13:13:31;21.23;;;6.87;;
31482;SDS011;18103;52.246;8.052;2023-05-10T13:15:56;16.50;;;8.00;;
31482;SDS011;18103;52.246;8.052;2023-05-10T13:18:26;21.10;;;8.37;;
31482;SDS011;18103;52.246;8.052;2023-05-10T13:20:53;15.63;;;7.87;;
31482;SDS011;18103;52.246;8.052;2023-05-10T13:23:21;16.97;;;6.73;;
31482;SDS011;18103;52.246;8.052;2023-05-10T13:25:48;10.33;;;6.23;;
31482;SDS011;18103;52.246;8.052;2023-05-10T13:28:14;15.77;;;6.63;;
31482;SDS011;18103;52.246;8.052;2023-05-10T13:30:40;18.27;;;6.53;;
31482;SDS011;18103;52.246;8.052;2023-05-10T13:33:05;15.37;;;6.57;;
31482;SDS011;18103;52.246;8.052;2023-05-10T13:35:33;15.30;;;6.50;;
31482;SDS011;18103;52.246;8.052;2023-05-10T13:37:58;19.43;;;7.37;;
31482;SDS011;18103;52.246;8.052;2023-05-10T13:40:24;15.43;;;6.73;;
31482;SDS011;18103;52.246;8.052;2023-05-10T13:42:49;19.60;;;8.00;;
31482;SDS011;18103;52.246;8.052;2023-05-10T13:45:21;13.87;;;7.07;;
31482;SDS011;18103;52.246;8.052;2023-05-10T13:47:49;26.17;;;8.87;;
31482;SDS011;18103;52.246;8.052;2023-05-10T13:50:19;20.00;;;9.43;;
31482;SDS011;18103;52.246;8.052;2023-05-10T13:52:47;18.50;;;8.10;;
31482;SDS011;18103;52.246;8.052;2023-05-10T13:55:15;15.77;;;8.00;;
31482;SDS011;18103;52.246;8.052;2023-05-10T13:57:40;13.80;;;7.73;;
31482;SDS011;18103;52.246;8.052;2023-05-10T14:00:06;20.67;;;9.07;;
31482;SDS011;18103;52.246;8.052;2023-05-10T14:02:35;19.93;;;8.53;;
31482;SDS011;18103;52.246;8.052;2023-05-10T14:05:02;13.73;;;8.03;;
31482;SDS011;18103;52.246;8.052;2023-05-10T14:07:30;21.07;;;8.40;;
31482;SDS011;18103;52.246;8.052;2023-05-10T14:09:56;17.47;;;8.10;;
31482;SDS011;18103;52.246;8.052;2023-05-10T14:12:24;20.20;;;7.53;;
31482;SDS011;18103;52.246;8.052;2023-05-10T14:14:49;18.87;;;8.43;;
31482;SDS011;18103;52.246;8.052;2023-05-10T14:17:15;15.63;;;8.10;;
31482;SDS011;18103;52.246;8.052;2023-05-10T14:19:41;19.30;;;8.57;;
31482;SDS011;18103;52.246;8.052;2023-05-10T14:22:06;18.60;;;8.77;;
31482;SDS011;18103;52.246;8.052;2023-05-10T14:24:31;20.40;;;8.43;;
31482;SDS011;18103;52.246;8.052;2023-05-10T14:26:57;17.80;;;8.83;;
31482;SDS011;18103;52.246;8.052;2023-05-10T14:29:22;14.43;;;8.07;;
31482;SDS011;18103;52.246;8.052;2023-05-10T14:31:48;16.80;;;7.73;;
31482;SDS011;18103;52.246;8.052;2023-05-10T14:34:15;20.17;;;8.40;;
31482;SDS011;18103;52.246;8.052;2023-05-10T14:36:43;12.97;;;7.17;;
31482;SDS011;18103;52.246;8.052;2023-05-10T14:39:13;12.73;;;6.90;;
31482;SDS011;18103;52.246;8.052;2023-05-10T14:41:39;15.83;;;7.10;;
31482;SDS011;18103;52.246;8.052;2023-05-10T14:44:07;14.53;;;7.33;;
31482;SDS011;18103;52.246;8.052;2023-05-10T14:46:33;17.73;;;7.43;;
31482;SDS011;18103;52.246;8.052;2023-05-10T14:48:59;15.57;;;7.60;;
31482;SDS011;18103;52.246;8.052;2023-05-10T14:51:24;17.67;;;7.93;;
31482;SDS011;18103;52.246;8.052;2023-05-10T14:53:50;20.37;;;9.47;;
31482;SDS011;18103;52.246;8.052;2023-05-10T14:56:15;15.57;;;8.10;;
31482;SDS011;18103;52.246;8.052;2023-05-10T14:58:40;15.40;;;7.83;;
31482;SDS011;18103;52.246;8.052;2023-05-10T15:01:06;18.97;;;9.33;;
31482;SDS011;18103;52.246;8.052;2023-05-10T15:03:31;15.67;;;7.37;;
31482;SDS011;18103;52.246;8.052;2023-05-10T15:05:56;15.40;;;8.70;;
31482;SDS011;18103;52.246;8.052;2023-05-10T15:08:22;16.17;;;7.27;;
31482;SDS011;18103;52.246;8.052;2023-05-10T15:10:51;15.97;;;6.90;;
31482;SDS011;18103;52.246;8.052;2023-05-10T15:13:16;13.17;;;6.83;;
31482;SDS011;18103;52.246;8.052;2023-05-10T15:15:42;12.20;;;6.00;;
31482;SDS011;18103;52.246;8.052;2023-05-10T15:18:10;12.13;;;6.30;;
31482;SDS011;18103;52.246;8.052;2023-05-10T15:20:35;14.67;;;6.70;;
31482;SDS011;18103;52.246;8.052;2023-05-10T15:23:00;13.57;;;5.70;;
31482;SDS011;18103;52.246;8.052;2023-05-10T15:25:28;16.03;;;6.53;;
31482;SDS011;18103;52.246;8.052;2023-05-10T15:27:54;11.40;;;5.40;;